createdAt,value
2023-01-04T00:01:54.934Z,8.80
2023-01-04T00:04:21.330Z,8.33
2023-01-04T04:08:49.123Z,5.98
2023-01-04T04:11:15.507Z,5.59
2023-01-04T04:13:41.889Z,5.59
2023-01-04T04:16:08.331Z,5.07
2023-01-04T04:18:34.771Z,5.35
2023-01-04T04:21:01.178Z,5.41
2023-01-04T04:23:27.584Z,5.04
2023-01-04T04:25:53.959Z,5.34
2023-01-04T04:28:20.375Z,5.57
2023-01-04T04:30:46.845Z,5.26
2023-01-04T04:33:13.236Z,5.21
2023-01-04T04:35:39.615Z,5.17
2023-01-04T04:38:06.005Z,5.49
2023-01-04T04:40:32.398Z,5.32
2023-01-04T04:42:58.786Z,5.33
2023-01-04T04:45:25.257Z,5.10
2023-01-04T04:47:51.674Z,5.26
2023-01-04T04:50:18.064Z,5.12
2023-01-04T04:52:44.494Z,5.16
2023-01-04T04:55:10.939Z,4.80
2023-01-04T04:57:37.348Z,5.15
2023-01-04T05:00:03.734Z,4.71
2023-01-04T05:02:30.371Z,5.03
2023-01-04T05:04:56.859Z,5.08
2023-01-04T05:07:23.241Z,4.83
2023-01-04T05:09:49.631Z,4.87
2023-01-04T05:12:15.993Z,5.15
2023-01-04T05:14:42.371Z,4.70
2023-01-04T05:17:08.851Z,4.78
2023-01-04T05:19:35.332Z,4.93
2023-01-04T05:22:01.742Z,4.82
2023-01-04T05:24:28.137Z,5.09
2023-01-04T05:26:54.513Z,4.72
2023-01-04T05:29:20.899Z,4.58
2023-01-04T05:31:47.317Z,4.90
2023-01-04T05:34:17.151Z,4.90
2023-01-04T05:36:48.329Z,4.81
2023-01-04T05:39:14.713Z,4.63
2023-01-04T05:41:41.123Z,4.86
2023-01-04T05:44:07.488Z,4.85
2023-01-04T05:46:33.951Z,5.06
2023-01-04T05:49:00.409Z,4.93
2023-01-04T05:51:26.800Z,4.82
2023-01-04T05:53:53.199Z,5.11
2023-01-04T05:56:19.587Z,4.80
2023-01-04T05:58:46.002Z,4.68
2023-01-04T06:01:12.544Z,4.77
2023-01-04T06:03:39.117Z,4.77
2023-01-04T06:06:05.617Z,4.91
2023-01-04T06:08:32.001Z,4.73
2023-01-04T06:10:58.385Z,4.75
2023-01-04T06:13:24.762Z,4.98
2023-01-04T06:15:51.123Z,4.79
2023-01-04T06:18:17.510Z,4.63
2023-01-04T06:20:44.030Z,4.51
2023-01-04T06:23:10.474Z,4.46
2023-01-04T06:25:36.861Z,4.29
2023-01-04T06:28:03.238Z,4.57
2023-01-04T06:30:29.671Z,4.50
2023-01-04T06:32:56.073Z,4.51
2023-01-04T06:35:22.468Z,4.58
2023-01-04T06:37:48.873Z,4.48
2023-01-04T06:40:15.257Z,4.65
2023-01-04T06:42:41.646Z,4.58
2023-01-04T06:45:08.047Z,4.50
2023-01-04T06:47:34.425Z,4.44
2023-01-04T06:50:00.780Z,4.42
2023-01-04T06:52:27.157Z,4.33
2023-01-04T06:54:53.551Z,4.14
2023-01-04T06:57:19.946Z,4.35
2023-01-04T06:59:46.349Z,4.64
2023-01-04T07:02:12.843Z,4.37
2023-01-04T07:04:39.369Z,4.52
2023-01-04T07:07:05.795Z,5.02
2023-01-04T07:09:32.200Z,4.82
2023-01-04T07:11:58.578Z,4.51
2023-01-04T07:14:24.941Z,4.66
2023-01-04T07:16:51.396Z,4.58
2023-01-04T07:19:17.856Z,4.20
2023-01-04T07:21:44.227Z,4.28
2023-01-04T07:24:10.590Z,4.28
2023-01-04T07:26:36.996Z,4.16
2023-01-04T07:29:03.395Z,4.39
2023-01-04T07:31:29.822Z,4.25
2023-01-04T07:33:56.263Z,4.22
2023-01-04T07:36:22.674Z,4.17
2023-01-04T07:38:49.064Z,4.05
2023-01-04T07:41:15.488Z,4.25
2023-01-04T07:43:41.909Z,4.19
2023-01-04T07:46:08.335Z,4.30
2023-01-04T07:48:34.740Z,4.13
2023-01-04T07:51:01.128Z,4.24
2023-01-04T07:53:27.519Z,4.06
2023-01-04T07:55:53.900Z,4.57
2023-01-04T07:58:20.293Z,4.33
2023-01-04T08:00:46.733Z,4.35
2023-01-04T08:03:13.141Z,4.30
2023-01-04T08:05:39.520Z,4.08
2023-01-04T08:08:05.919Z,4.02
2023-01-04T08:10:32.317Z,4.38
2023-01-04T08:12:58.709Z,4.24
2023-01-04T08:15:25.083Z,4.49
2023-01-04T08:17:51.470Z,4.11
2023-01-04T08:20:17.845Z,4.00
2023-01-04T08:22:44.222Z,4.29
2023-01-04T08:25:10.618Z,4.20
2023-01-04T08:27:37.010Z,4.29
2023-01-04T08:30:03.382Z,4.64
2023-01-04T08:32:29.762Z,4.66
2023-01-04T08:34:56.158Z,4.64
2023-01-04T08:37:22.634Z,4.94
2023-01-04T08:39:50.054Z,5.15
2023-01-04T08:42:22.485Z,5.18
2023-01-04T08:44:59.473Z,5.37
2023-01-04T08:47:26.373Z,5.18
2023-01-04T08:49:52.804Z,5.89
2023-01-04T08:52:19.171Z,5.75
2023-01-04T08:54:45.575Z,5.95
2023-01-04T08:57:11.946Z,6.38
2023-01-04T08:59:38.326Z,6.60
2023-01-04T09:02:06.091Z,6.90
2023-01-04T09:04:32.888Z,6.92
2023-01-04T09:06:59.330Z,7.01
2023-01-04T09:09:25.723Z,6.90
2023-01-04T09:11:52.159Z,6.85
2023-01-04T09:14:18.563Z,6.64
2023-01-04T09:16:45.170Z,7.60
2023-01-04T09:19:15.111Z,7.52
2023-01-04T09:21:44.592Z,7.36
2023-01-04T09:24:10.998Z,7.50
2023-01-04T09:26:37.396Z,7.81
2023-01-04T09:29:03.844Z,7.90
2023-01-04T09:31:30.283Z,8.21
2023-01-04T09:34:14.711Z,8.46
2023-01-04T09:36:42.751Z,8.62
2023-01-04T09:39:13.217Z,8.78
2023-01-04T09:41:45.007Z,8.89
2023-01-04T09:44:11.390Z,9.31
2023-01-04T09:46:37.826Z,9.24
2023-01-04T09:49:04.285Z,9.65
2023-01-04T09:51:30.683Z,10.40
2023-01-04T09:53:57.063Z,10.18
2023-01-04T09:56:23.469Z,10.39
2023-01-04T09:58:49.873Z,10.58
2023-01-04T10:01:16.381Z,10.81
2023-01-04T10:03:42.899Z,10.74
2023-01-04T10:06:09.367Z,11.07
2023-01-04T10:08:35.742Z,11.42
2023-01-04T10:11:02.133Z,11.12
2023-01-04T10:13:28.530Z,11.21
2023-01-04T10:15:54.986Z,11.98
2023-01-04T10:23:54.164Z,12.68
2023-01-04T10:26:20.550Z,12.79
2023-01-04T10:28:46.946Z,12.39
2023-01-04T10:31:38.674Z,12.81
2023-01-04T10:33:59.710Z,13.92
2023-01-04T10:36:26.088Z,13.68
2023-01-04T10:38:52.480Z,13.99
2023-01-04T10:41:18.888Z,13.70
2023-01-04T10:44:12.209Z,13.96
2023-01-04T10:46:31.757Z,13.62
2023-01-04T10:48:58.169Z,13.71
2023-01-04T10:51:24.550Z,13.73
2023-01-04T10:53:50.941Z,13.88
2023-01-04T10:56:25.482Z,13.98
2023-01-04T10:58:53.051Z,13.86
2023-01-04T11:01:19.605Z,14.33
2023-01-04T11:03:46.118Z,13.88
2023-01-04T11:06:12.562Z,13.72
2023-01-04T11:08:38.989Z,13.59
2023-01-04T11:11:05.404Z,14.10
2023-01-04T11:13:31.799Z,13.94
2023-01-04T11:15:58.305Z,13.70
2023-01-04T11:18:24.760Z,14.11
2023-01-04T11:20:51.138Z,14.36
2023-01-04T11:23:17.675Z,13.84
2023-01-04T11:25:44.091Z,14.21
2023-01-04T11:28:10.486Z,14.25
2023-01-04T11:30:36.906Z,14.83
2023-01-04T11:33:03.303Z,15.10
2023-01-04T11:35:29.951Z,15.44
2023-01-04T11:37:57.628Z,15.56
2023-01-04T11:40:24.077Z,16.00
2023-01-04T11:42:50.481Z,16.14
2023-01-04T11:45:16.882Z,16.51
2023-01-04T11:47:43.265Z,16.65
2023-01-04T11:50:09.657Z,16.65
2023-01-04T11:52:36.085Z,16.99
2023-01-04T11:55:02.475Z,18.47
2023-01-04T11:57:28.874Z,20.19
2023-01-04T11:59:55.264Z,20.98
2023-01-04T12:02:50.438Z,21.64
2023-01-04T12:05:08.017Z,22.89
2023-01-04T12:07:34.494Z,24.62
2023-01-04T12:10:00.897Z,25.80
2023-01-04T12:12:27.283Z,27.76
2023-01-04T12:14:53.685Z,30.24
2023-01-04T12:17:20.081Z,31.31
2023-01-04T12:19:46.475Z,31.34
2023-01-04T12:22:12.864Z,31.29
2023-01-04T12:24:39.263Z,32.97
2023-01-04T12:27:05.677Z,33.97
2023-01-04T12:29:32.067Z,35.56
2023-01-04T12:31:58.550Z,36.72
2023-01-04T12:34:24.946Z,37.04
2023-01-04T12:36:51.357Z,38.13
2023-01-04T12:39:17.749Z,37.82
2023-01-04T12:41:44.183Z,39.69
2023-01-04T12:44:10.572Z,38.04
2023-01-04T12:46:37.293Z,38.34
2023-01-04T12:49:03.723Z,38.98
2023-01-04T12:51:31.561Z,40.61
2023-01-04T12:53:58.423Z,39.39
2023-01-04T12:56:24.829Z,38.18
2023-01-04T12:59:24.199Z,37.89
2023-01-04T13:01:37.661Z,37.26
2023-01-04T13:04:06.028Z,37.14
2023-01-04T13:06:32.612Z,37.25
2023-01-04T13:08:58.997Z,36.04
2023-01-04T13:11:25.391Z,35.94
2023-01-04T13:13:51.814Z,35.80
2023-01-04T13:16:18.253Z,35.58
2023-01-04T13:18:44.742Z,35.14
2023-01-04T13:21:11.140Z,35.88
2023-01-04T13:23:37.530Z,34.95
2023-01-04T13:26:03.928Z,34.48
2023-01-04T13:28:30.352Z,34.30
2023-01-04T13:30:56.828Z,34.20
2023-01-04T13:33:26.691Z,34.47
2023-01-04T13:35:53.951Z,33.67
2023-01-04T13:38:20.330Z,33.61
2023-01-04T13:40:50.060Z,33.14
2023-01-04T13:43:16.518Z,33.20
2023-01-04T13:45:42.955Z,32.50
2023-01-04T13:48:09.406Z,32.08
2023-01-04T13:50:35.808Z,31.53
2023-01-04T13:53:07.663Z,31.83
2023-01-04T13:55:34.740Z,32.12
2023-01-04T13:58:01.143Z,31.08
2023-01-04T14:00:27.517Z,31.03
2023-01-04T14:02:54.101Z,30.97
2023-01-04T14:05:20.596Z,30.40
2023-01-04T14:07:46.978Z,30.36
2023-01-04T14:10:13.374Z,30.48
2023-01-04T14:12:39.847Z,30.96
2023-01-04T14:15:06.261Z,30.63
2023-01-04T14:17:32.660Z,30.59
2023-01-04T14:19:59.095Z,29.65
2023-01-04T14:22:25.519Z,30.46
2023-01-04T14:27:38.330Z,29.91
2023-01-04T14:30:04.731Z,29.08
2023-01-04T14:32:31.142Z,29.33
2023-01-04T14:34:57.538Z,29.16
2023-01-04T14:37:23.930Z,29.03
2023-01-04T14:39:50.349Z,28.23
2023-01-04T14:42:20.930Z,28.65
2023-01-04T14:44:49.093Z,28.88
2023-01-04T14:47:15.534Z,28.43
2023-01-04T14:49:42.035Z,28.36
2023-01-04T14:52:08.413Z,27.92
2023-01-04T14:54:34.796Z,27.54
2023-01-04T14:57:01.178Z,27.88
2023-01-04T14:59:27.567Z,28.77
2023-01-04T15:01:54.039Z,27.60
2023-01-04T15:04:20.753Z,25.98
2023-01-04T15:06:47.254Z,25.53
2023-01-04T15:09:13.630Z,25.75
2023-01-04T15:11:40.027Z,24.49
2023-01-04T15:14:06.421Z,24.93
2023-01-04T15:16:32.846Z,24.97
2023-01-04T15:18:59.281Z,24.74
2023-01-04T15:21:25.691Z,25.60
2023-01-04T15:23:52.096Z,24.90
2023-01-04T15:26:18.505Z,24.73
2023-01-04T15:28:44.909Z,25.11
2023-01-04T15:31:11.355Z,24.78
2023-01-04T15:33:37.930Z,24.23
2023-01-04T15:36:04.374Z,24.03
2023-01-04T15:38:30.755Z,24.07
2023-01-04T15:40:57.138Z,23.67
2023-01-04T15:43:23.539Z,23.87
2023-01-04T15:45:49.925Z,24.53
2023-01-04T15:48:16.331Z,23.75
2023-01-04T15:50:42.752Z,23.64
2023-01-04T15:53:09.165Z,23.56
2023-01-04T15:55:36.763Z,23.56
2023-01-04T15:58:03.297Z,23.54
2023-01-04T16:00:29.686Z,23.53
2023-01-04T16:02:56.129Z,23.05
2023-01-04T16:05:22.582Z,23.01
2023-01-04T16:07:48.984Z,23.02
2023-01-04T16:10:15.396Z,22.72
2023-01-04T16:12:41.774Z,22.97
2023-01-04T16:15:08.174Z,23.26
2023-01-04T16:17:34.561Z,22.96
2023-01-04T16:20:00.964Z,22.96
2023-01-04T16:22:27.374Z,23.45
2023-01-04T16:25:10.829Z,23.41
2023-01-04T16:27:37.984Z,23.18
2023-01-04T16:30:04.361Z,23.97
2023-01-04T16:32:30.746Z,24.05
2023-01-04T16:34:57.146Z,23.07
2023-01-04T16:37:23.543Z,23.98
2023-01-04T16:40:05.949Z,23.89
2023-01-04T16:42:33.486Z,24.12
2023-01-04T16:44:59.916Z,24.55
2023-01-04T16:47:26.324Z,23.81
2023-01-04T16:49:52.723Z,23.95
2023-01-04T16:52:19.127Z,24.55
2023-01-04T16:54:45.529Z,24.19
2023-01-04T16:57:11.915Z,23.48
2023-01-04T16:59:38.336Z,24.35
2023-01-04T17:02:04.855Z,24.32
2023-01-04T17:04:31.352Z,24.56
2023-01-04T17:06:57.765Z,24.18
2023-01-04T17:09:24.156Z,24.36
2023-01-04T17:12:36.300Z,22.84
2023-01-04T17:14:36.919Z,23.17
2023-01-04T17:17:03.325Z,22.04
2023-01-04T17:19:29.718Z,23.25
2023-01-04T17:21:56.114Z,23.35
2023-01-04T17:24:22.534Z,22.49
2023-01-04T17:26:48.913Z,22.58
2023-01-04T17:29:15.299Z,23.52
2023-01-04T17:31:41.755Z,22.38
2023-01-04T17:34:08.187Z,22.13
2023-01-04T17:36:34.570Z,21.54
2023-01-04T17:39:00.991Z,22.35
2023-01-04T17:41:27.398Z,21.52
2023-01-04T17:43:53.787Z,21.81
2023-01-04T17:46:23.166Z,21.03
2023-01-04T17:48:55.483Z,21.37
2023-01-04T17:51:36.271Z,21.34
2023-01-04T17:54:02.676Z,20.46
2023-01-04T17:56:29.054Z,20.59
2023-01-04T17:58:55.450Z,21.27
2023-01-04T18:01:21.929Z,20.67
2023-01-04T18:03:48.425Z,20.95
2023-01-04T18:06:25.476Z,20.70
2023-01-04T18:08:52.382Z,19.46
2023-01-04T18:11:18.802Z,20.00
2023-01-04T18:13:45.278Z,19.77
2023-01-04T18:16:23.758Z,19.85
2023-01-04T18:18:51.380Z,19.10
2023-01-04T18:21:28.068Z,19.64
2023-01-04T18:24:34.271Z,19.64
2023-01-04T18:27:10.923Z,19.82
2023-01-04T18:29:27.994Z,20.01
2023-01-04T18:31:54.463Z,19.89
2023-01-04T18:34:20.904Z,19.49
2023-01-04T18:36:47.290Z,19.34
2023-01-04T18:39:13.689Z,19.62
2023-01-04T18:41:40.085Z,19.18
2023-01-04T18:44:31.464Z,19.96
2023-01-04T18:46:52.821Z,20.08
2023-01-04T18:49:19.206Z,19.67
2023-01-04T18:51:45.702Z,20.12
2023-01-04T18:54:12.094Z,21.13
2023-01-04T18:56:38.499Z,20.74
2023-01-04T18:59:04.887Z,20.88
2023-01-04T19:01:31.395Z,21.23
2023-01-04T19:03:57.918Z,21.28
2023-01-04T19:06:24.303Z,20.54
2023-01-04T19:08:56.215Z,20.80
2023-01-04T19:11:24.545Z,21.68
2023-01-04T19:13:50.960Z,21.89
2023-01-04T19:16:17.417Z,21.38
2023-01-04T19:18:43.841Z,22.02
2023-01-04T19:21:10.256Z,20.94
2023-01-04T19:23:36.652Z,21.32
2023-01-04T19:26:03.042Z,21.67
2023-01-04T19:28:29.427Z,22.04
2023-01-04T19:30:55.862Z,21.91
2023-01-04T19:33:22.265Z,22.23
2023-01-04T19:35:48.697Z,22.71
2023-01-04T19:38:15.078Z,23.09
2023-01-04T19:40:41.479Z,23.70
2023-01-04T19:43:07.867Z,25.55
2023-01-04T19:45:34.309Z,26.77
2023-01-04T19:48:00.741Z,27.63
2023-01-04T19:50:27.123Z,27.90
2023-01-04T19:52:53.517Z,29.00
2023-01-04T19:55:19.922Z,29.73
2023-01-04T19:57:46.308Z,30.71
2023-01-04T20:00:12.733Z,31.55
2023-01-04T20:02:39.200Z,31.72
2023-01-04T20:05:05.675Z,32.98
2023-01-04T20:07:32.057Z,32.37
2023-01-04T20:09:58.465Z,34.12
2023-01-04T20:12:24.857Z,34.71
2023-01-04T20:14:51.282Z,35.57
2023-01-04T20:17:17.672Z,36.99
2023-01-04T20:19:44.055Z,37.70
2023-01-04T20:22:10.450Z,37.21
2023-01-04T20:24:36.838Z,39.33
2023-01-04T20:27:03.236Z,39.42
2023-01-04T20:29:29.654Z,39.42
2023-01-04T20:31:56.049Z,39.28
2023-01-04T20:34:22.464Z,39.63
2023-01-04T20:36:48.837Z,39.39
2023-01-04T20:39:15.259Z,39.98
2023-01-04T20:41:41.664Z,39.97
2023-01-04T20:44:08.068Z,39.41
2023-01-04T20:46:34.508Z,39.71
2023-01-04T20:49:00.970Z,39.48
2023-01-04T20:51:27.403Z,39.37
2023-01-04T20:53:54.045Z,38.66
2023-01-04T20:56:20.494Z,38.38
2023-01-04T20:58:46.942Z,38.00
2023-01-04T21:01:13.486Z,38.76
2023-01-04T21:03:40.044Z,38.31
2023-01-04T21:06:06.490Z,37.17
2023-01-04T21:08:32.888Z,36.52
2023-01-04T21:10:59.308Z,37.23
2023-01-04T21:13:25.729Z,37.45
2023-01-04T21:15:52.210Z,36.92
2023-01-04T21:18:18.657Z,36.16
2023-01-04T21:20:45.074Z,36.12
2023-01-04T21:23:11.458Z,35.47
2023-01-04T21:25:37.842Z,35.56
2023-01-04T21:28:04.238Z,34.75
2023-01-04T21:30:30.627Z,35.65
2023-01-04T21:33:01.519Z,34.50
2023-01-04T21:35:28.384Z,34.40
2023-01-04T21:37:54.791Z,34.17
2023-01-04T21:40:21.170Z,33.80
2023-01-04T21:42:47.550Z,33.62
2023-01-04T21:45:13.945Z,32.07
2023-01-04T21:47:40.340Z,32.70
2023-01-04T21:50:09.681Z,32.70
2023-01-04T21:52:39.730Z,32.39
2023-01-04T21:55:06.133Z,32.09
2023-01-04T21:57:32.512Z,31.00
2023-01-04T21:59:58.918Z,31.81
2023-01-04T22:02:25.405Z,31.19
2023-01-04T22:04:51.862Z,30.45
2023-01-04T22:07:18.253Z,30.56
2023-01-04T22:09:44.653Z,29.85
2023-01-04T22:12:11.035Z,29.13
2023-01-04T22:14:37.418Z,30.24
2023-01-04T22:17:03.797Z,29.45
2023-01-04T22:19:30.186Z,29.17
2023-01-04T22:21:56.569Z,29.23
2023-01-04T22:24:22.962Z,28.65
2023-01-04T22:26:49.336Z,28.45
2023-01-04T22:29:15.803Z,28.27
2023-01-04T22:31:42.200Z,27.97
2023-01-04T22:34:08.599Z,28.60
2023-01-04T22:36:34.987Z,27.17
2023-01-04T22:39:01.391Z,27.46
2023-01-04T22:41:27.771Z,26.97
2023-01-04T22:43:54.175Z,26.79
2023-01-04T22:46:20.625Z,26.66
2023-01-04T22:48:47.073Z,26.43
2023-01-04T22:51:13.514Z,25.97
2023-01-04T22:53:39.924Z,25.76
2023-01-04T22:56:18.796Z,25.08
2023-01-04T22:58:52.097Z,25.37
2023-01-04T23:01:19.673Z,25.11
2023-01-04T23:03:46.293Z,25.45
2023-01-04T23:06:12.731Z,24.50
2023-01-04T23:08:39.121Z,24.70
2023-01-04T23:11:05.530Z,24.50
2023-01-04T23:13:31.948Z,23.77
2023-01-04T23:15:58.381Z,23.79
2023-01-04T23:18:24.813Z,22.81
2023-01-04T23:20:51.190Z,23.30
2023-01-04T23:23:17.580Z,22.49
2023-01-04T23:25:43.985Z,22.89
2023-01-04T23:28:10.385Z,22.46
2023-01-04T23:30:36.886Z,22.01
2023-01-04T23:33:03.288Z,22.30
2023-01-04T23:35:29.673Z,21.82
2023-01-04T23:37:56.095Z,21.91
2023-01-04T23:40:22.504Z,22.12
2023-01-04T23:42:48.910Z,21.55
2023-01-04T23:45:15.295Z,21.07
2023-01-04T23:47:41.677Z,21.03
2023-01-04T23:50:08.055Z,20.86
2023-01-04T23:52:34.436Z,20.68
2023-01-04T23:55:00.824Z,20.97
2023-01-04T23:57:27.203Z,20.37
2023-01-04T23:59:53.592Z,19.82
